Temp: 5.3°C   Baro: 993.7mb
  Wind: 0.0mph   Dir: WNW (296°)
  Rain: 0.2mm (0.0mm/hr)
  Solar: 279W/m2  Hum: 92%
 
Bath Spa Weather Station Historical Data
Daily Summary for January 7, 2020 Units:  English    Metric   Both
Daily Weekly Monthly Yearly Custom
  High: Low: Average:
Temperature: 55.3 °F °F 52 °F
Dew Point: 53.6 °F °F 49.8 °F
Humidity: 94% % 92%
Wind Speed: 11.4mph mph 5.5mph
Wind Gust: 21mph - -
Wind- - SW
Pressure: 30.23 in 0.00 in -
Precipitation: 0.01 in    
Historical Graphs
 
 
Tabular Data for January 7, 2020
Time Temperature Dew Point Pressure Wind Wind Speed Wind Gust Humidity Rainfall Rate (Hourly) solar
00:04 44.3 °F 42.3 °F 30.23 in East 2.2 mph 3 mph 93% 0.00 in 0 W/m2
00:09 44.2 °F 42.3 °F 30.22 in East 1.2 mph 3 mph 93% 0.00 in 0 W/m2
00:14 44.1 °F 42.2 °F 30.23 in East 1.3 mph 3 mph 93% 0.00 in 0 W/m2
00:19 44 °F 42 °F 30.23 in East 1.6 mph 3 mph 93% 0.00 in 0 W/m2
00:24 43.9 °F 42.1 °F 30.23 in East 1.5 mph 3 mph 93.5% 0.00 in 0 W/m2
00:29 43.9 °F 42.3 °F 30.23 in East 0.6 mph 3 mph 94% 0.00 in 0 W/m2
00:34 43.9 °F 42.3 °F 30.22 in Calm   1 mph 94% 0.00 in 0 W/m2
00:39 43.9 °F 42.3 °F 30.22 in East 0.9 mph 2 mph 94% 0.00 in 0 W/m2
00:44 43.8 °F 42.2 °F 30.22 in East 2 mph 3 mph 94% 0.00 in 0 W/m2
00:49 43.5 °F 41.9 °F 30.22 in East 0.9 mph 2 mph 94% 0.00 in 0 W/m2
00:54 43.5 °F 41.9 °F 30.22 in East 0.7 mph 2 mph 94% 0.00 in 0 W/m2
00:59 43.4 °F 41.8 °F 30.23 in East 2.6 mph 3 mph 94% 0.00 in 0 W/m2
01:04 43.3 °F 41.6 °F 30.23 in East 0.7 mph 3 mph 94% 0.00 in 0 W/m2
01:09 43.2 °F 41.5 °F 30.23 in East 1.5 mph 3 mph 94% 0.00 in 0 W/m2
01:14 43 °F 41.4 °F 30.23 in East 0.2 mph 3 mph 94% 0.00 in 0 W/m2
01:19 42.8 °F 41.2 °F 30.23 in East 1.4 mph 3 mph 94% 0.00 in 0 W/m2
01:24 42.9 °F 41.3 °F 30.23 in East 1.1 mph 3 mph 94% 0.00 in 0 W/m2
01:29 43.2 °F 41.5 °F 30.23 in East 0.4 mph 2 mph 94% 0.00 in 0 W/m2
01:34 43 °F 41.4 °F 30.23 in East 0.9 mph 2 mph 94% 0.00 in 0 W/m2
01:39 43 °F 41.4 °F 30.23 in ENE 2.2 mph 4 mph 94% 0.00 in 0 W/m2
01:44 43.1 °F 41.4 °F 30.23 in NW 1.4 mph 4 mph 94% 0.00 in 0 W/m2
01:49 43 °F 41.4 °F 30.23 in WNW 2 mph 4 mph 94% 0.00 in 0 W/m2
01:53 43 °F 41.4 °F 30.23 in NW 1.7 mph 3 mph 94% 0.00 in 0 W/m2
06:40 °F °F 0.00 in Calm     % 0.00 in W/m2
07:14 47.8 °F 45.3 °F 30.20 in SW 4.6 mph 8 mph 91.2% 0.00 in 0 W/m2
07:19 47.9 °F 45.4 °F 30.19 in SW 3.8 mph 8 mph 91% 0.00 in 0 W/m2
07:24 48 °F 45.5 °F 30.19 in South 2.1 mph 8 mph 91% 0.00 in 0 W/m2
07:29 48 °F 45.5 °F 30.19 in SW 0.8 mph 7 mph 91% 0.00 in 0 W/m2
07:34 48 °F 45.5 °F 30.19 in WSW 2.2 mph 6 mph 91% 0.00 in 0 W/m2
07:39 48.1 °F 45.6 °F 30.19 in SW 5 mph 10 mph 91% 0.00 in 0 W/m2
07:44 48.2 °F 45.7 °F 30.19 in WSW 4 mph 9 mph 91% 0.00 in 0 W/m2
07:49 48.3 °F 45.8 °F 30.19 in SSW 4 mph 9 mph 91% 0.00 in 0 W/m2
07:54 48.5 °F 45.8 °F 30.19 in SW 3.3 mph 10 mph 90.6% 0.00 in 0 W/m2
07:59 48.6 °F 45.7 °F 30.19 in WSW 4.1 mph 9 mph 90% 0.00 in 0 W/m2
08:04 48.6 °F 45.7 °F 30.19 in SSW 5.1 mph 9 mph 90% 0.00 in 0 W/m2
08:09 48.7 °F 45.9 °F 30.19 in SW 6 mph 10 mph 90% 0.00 in 7 W/m2
08:14 48.7 °F 45.9 °F 30.19 in SW 6 mph 11 mph 90% 0.00 in 5 W/m2
08:19 48.8 °F 45.9 °F 30.19 in SSW 6.7 mph 14 mph 89.4% 0.00 in 7 W/m2
08:24 48.9 °F 45.9 °F 30.19 in SW 5.2 mph 10 mph 89% 0.00 in 7 W/m2
08:29 48.9 °F 45.9 °F 30.19 in WSW 3.7 mph 8 mph 89% 0.00 in 11 W/m2
08:34 48.9 °F 45.9 °F 30.19 in SW 2.5 mph 8 mph 89% 0.00 in 16 W/m2
08:39 48.9 °F 45.9 °F 30.20 in WNW 4.2 mph 7 mph 89% 0.00 in 19 W/m2
08:44 48.9 °F 45.9 °F 30.20 in WNW 2.8 mph 6 mph 89% 0.00 in 23 W/m2
08:49 48.9 °F 45.9 °F 30.20 in WSW 1.4 mph 5 mph 89% 0.00 in 28 W/m2
08:54 49.1 °F 46 °F 30.20 in SSW 2.4 mph 6 mph 89% 0.00 in 39 W/m2
08:59 49.4 °F 46.3 °F 30.20 in SW 3.2 mph 9 mph 89% 0.00 in 49 W/m2
09:04 49.5 °F 46.4 °F 30.20 in SSW 2.9 mph 8 mph 89% 0.00 in 56 W/m2
09:09 49.6 °F 46.6 °F 30.20 in SSW 2.4 mph 6 mph 89% 0.00 in 65 W/m2
09:14 49.7 °F 46.7 °F 30.20 in South 4.4 mph 8 mph 89% 0.00 in 67 W/m2
09:19 49.8 °F 46.8 °F 30.20 in SSW 3 mph 6 mph 89% 0.00 in 67 W/m2
09:24 49.8 °F 46.8 °F 30.20 in SSW 3.5 mph 8 mph 89% 0.00 in 62 W/m2
09:29 50.1 °F 47 °F 30.19 in SW 3.3 mph 9 mph 89% 0.00 in 46 W/m2
09:34 50.2 °F 47.1 °F 30.19 in SW 3.7 mph 7 mph 89% 0.00 in 46 W/m2
09:39 50.3 °F 47.2 °F 30.19 in SW 4.3 mph 8 mph 89% 0.00 in 39 W/m2
09:44 50.4 °F 47.3 °F 30.19 in SW 4.4 mph 8 mph 89% 0.00 in 35 W/m2
09:49 50.5 °F 47.5 °F 30.19 in SW 3.3 mph 6 mph 89% 0.00 in 39 W/m2
09:54 50.5 °F 47.5 °F 30.19 in WSW 4.3 mph 12 mph 89% 0.00 in 53 W/m2
09:59 50.7 °F 47.7 °F 30.19 in SW 4 mph 12 mph 89% 0.00 in 56 W/m2
10:04 50.7 °F 47.7 °F 30.19 in WSW 6.2 mph 10 mph 89% 0.00 in 58 W/m2
10:09 50.8 °F 47.8 °F 30.19 in WSW 4.9 mph 11 mph 89% 0.00 in 58 W/m2
10:14 51.1 °F 48 °F 30.19 in SW 5.1 mph 14 mph 89% 0.00 in 54 W/m2
10:19 51.1 °F 48 °F 30.19 in SW 6.2 mph 14 mph 89% 0.00 in 70 W/m2
10:24 51.2 °F 48.1 °F 30.19 in SW 5.2 mph 11 mph 89% 0.00 in 81 W/m2
10:28 51.3 °F 48.2 °F 30.19 in SSW 4.7 mph 11 mph 89% 0.00 in 107 W/m2
10:34 51.4 °F 48.3 °F 30.19 in SW 5.6 mph 11 mph 88.8% 0.00 in 137 W/m2
10:39 51.6 °F 48.3 °F 30.18 in SSW 5.6 mph 12 mph 88.4% 0.00 in 200 W/m2
10:44 51.8 °F 48.6 °F 30.18 in SSW 5.6 mph 13 mph 88.6% 0.00 in 214 W/m2
10:49 52.1 °F 48.7 °F 30.18 in SSW 10.4 mph 18 mph 88% 0.00 in 197 W/m2
10:54 52.2 °F 48.7 °F 30.17 in SSW 10 mph 20 mph 88% 0.01 in 197 W/m2
10:59 52.2 °F 48.7 °F 30.17 in WSW 10.8 mph 16 mph 88% 0.01 in 188 W/m2
11:04 52.2 °F 48.7 °F 30.17 in SSW 8.6 mph 18 mph 88% 0.01 in 176 W/m2
11:09 52.2 °F 48.7 °F 30.17 in SSW 9.4 mph 17 mph 88% 0.01 in 139 W/m2
11:14 52 °F 48.8 °F 30.17 in SSW 10.7 mph 20 mph 88.8% 0.01 in 88 W/m2
11:19 51.6 °F 48.6 °F 30.17 in SW 8.7 mph 20 mph 89% 0.01 in 83 W/m2
11:24 51.6 °F 48.7 °F 30.17 in SW 5.5 mph 16 mph 90% 0.01 in 72 W/m2
11:29 51.5 °F 48.7 °F 30.16 in SW 11.4 mph 21 mph 90% 0.01 in 76 W/m2
11:34 51.5 °F 48.7 °F 30.16 in SSW 6.4 mph 16 mph 90% 0.01 in 53 W/m2
11:39 51.6 °F 49.1 °F 30.16 in South 9.4 mph 18 mph 91% 0.01 in 53 W/m2
11:44 51.6 °F 49.1 °F 30.16 in SSW 8.2 mph 19 mph 91% 0.01 in 53 W/m2
11:49 51.6 °F 49.1 °F 30.16 in SSW 9.4 mph 18 mph 91% 0.01 in 65 W/m2
11:53 51.6 °F 49.1 °F 30.16 in SSW 6.6 mph 18 mph 91% 0.01 in 65 W/m2
11:59 51.6 °F 49.3 °F 30.16 in South 5.6 mph 13 mph 91.6% 0.00 in 58 W/m2
12:04 51.6 °F 49.5 °F 30.16 in SSW 6.7 mph 15 mph 92% 0.00 in 47 W/m2
12:09 51.6 °F 49.5 °F 30.16 in SSW 5.9 mph 12 mph 92% 0.00 in 54 W/m2
12:14 51.6 °F 49.5 °F 30.15 in SSW 3.6 mph 9 mph 92% 0.00 in 60 W/m2
12:19 51.7 °F 49.6 °F 30.15 in SSW 5.5 mph 12 mph 92% 0.00 in 67 W/m2
12:24 52 °F 49.6 °F 30.15 in SSW 4.5 mph 14 mph 92% 0.00 in 69 W/m2
12:29 52 °F 49.6 °F 30.15 in SSW 5.8 mph 14 mph 92% 0.00 in 46 W/m2
12:34 52.2 °F 50 °F 30.15 in SSW 7.4 mph 17 mph 92.4% 0.00 in 51 W/m2
12:39 52.2 °F 50.2 °F 30.14 in SSW 5.4 mph 13 mph 93% 0.00 in 51 W/m2
12:44 52.3 °F 50.4 °F 30.14 in South 5.1 mph 9 mph 93% 0.00 in 51 W/m2
12:49 52.3 °F 50.4 °F 30.14 in South 6.4 mph 14 mph 93% 0.00 in 56 W/m2
12:54 52.5 °F 50.5 °F 30.14 in SW 4.7 mph 9 mph 93% 0.00 in 54 W/m2
12:59 52.5 °F 50.5 °F 30.13 in South 6.4 mph 13 mph 93% 0.00 in 46 W/m2
13:04 52.9 °F 50.9 °F 30.13 in SSW 5.7 mph 13 mph 93% 0.00 in 33 W/m2
13:09 53 °F 51 °F 30.13 in SSW 5.4 mph 10 mph 93% 0.00 in 35 W/m2
13:14 53.1 °F 51.1 °F 30.12 in SW 5.5 mph 12 mph 93% 0.00 in 42 W/m2
13:19 53.2 °F 51.3 °F 30.12 in SW 6.4 mph 13 mph 93% 0.00 in 40 W/m2
13:24 53.4 °F 51.4 °F 30.12 in South 5.8 mph 15 mph 93% 0.00 in 39 W/m2
13:29 53.5 °F 51.5 °F 30.11 in SSW 6.7 mph 13 mph 93% 0.00 in 30 W/m2
13:34 53.8 °F 51.5 °F 30.11 in SSW 4.4 mph 11 mph 92.4% 0.00 in 28 W/m2
13:39 53.8 °F 51.4 °F 30.11 in SW 6.2 mph 10 mph 92% 0.00 in 28 W/m2
13:44 54 °F 52 °F 30.11 in SSW 5.5 mph 13 mph 93% 0.00 in 33 W/m2
13:49 54 °F 52 °F 30.10 in SW 8 mph 17 mph 93% 0.00 in 39 W/m2
13:54 54 °F 52 °F 30.10 in SW 9.7 mph 18 mph 93% 0.00 in 37 W/m2
13:59 54 °F 52 °F 30.10 in SW 8.8 mph 17 mph 93% 0.00 in 42 W/m2
14:04 54 °F 52 °F 30.09 in SW 9.4 mph 18 mph 93% 0.00 in 47 W/m2
14:09 54 °F 52 °F 30.09 in SSW 7.8 mph 17 mph 93% 0.00 in 56 W/m2
14:14 54 °F 52 °F 30.09 in SSW 6.7 mph 19 mph 93% 0.00 in 62 W/m2
14:18 54.1 °F 52.1 °F 30.08 in SSW 6.5 mph 17 mph 93% 0.00 in 69 W/m2
14:24 54.1 °F 52.2 °F 30.07 in SSW 7.1 mph 18 mph 93% 0.00 in 69 W/m2
14:29 54.1 °F 52.2 °F 30.07 in SW 7.8 mph 18 mph 93% 0.00 in 60 W/m2
14:34 54.2 °F 52.3 °F 30.07 in SSW 6.2 mph 12 mph 93% 0.00 in 56 W/m2
14:39 54.3 °F 52.3 °F 30.07 in WSW 7.4 mph 16 mph 93% 0.00 in 47 W/m2
14:44 54.4 °F 52.4 °F 30.07 in SW 7.8 mph 18 mph 93% 0.00 in 54 W/m2
14:49 54.5 °F 52.5 °F 30.06 in SW 9.9 mph 14 mph 93% 0.00 in 54 W/m2
14:54 54.6 °F 52.6 °F 30.06 in SW 6.3 mph 17 mph 93% 0.00 in 56 W/m2
14:59 54.7 °F 52.7 °F 30.06 in SW 7.1 mph 17 mph 93% 0.00 in 47 W/m2
15:04 54.9 °F 52.8 °F 30.06 in SW 5.2 mph 12 mph 92.8% 0.00 in 26 W/m2
15:09 54.9 °F 52.5 °F 30.06 in West 4.1 mph 10 mph 92% 0.00 in 26 W/m2
15:14 54.9 °F 52.5 °F 30.06 in SW 5.7 mph 9 mph 92% 0.00 in 25 W/m2
15:19 54.9 °F 52.5 °F 30.06 in SW 4.4 mph 11 mph 92% 0.00 in 23 W/m2
15:24 54.9 °F 52.5 °F 30.06 in SW 7.6 mph 12 mph 92% 0.00 in 16 W/m2
15:29 54.9 °F 52.5 °F 30.06 in SW 5.8 mph 11 mph 92% 0.00 in 12 W/m2
15:34 54.9 °F 52.5 °F 30.06 in SSW 6.6 mph 15 mph 92% 0.00 in 11 W/m2
15:39 54.8 °F 52.4 °F 30.06 in SW 6 mph 11 mph 92% 0.00 in 11 W/m2
15:44 54.9 °F 52.5 °F 30.06 in SSW 6 mph 17 mph 92% 0.00 in 11 W/m2
15:49 54.9 °F 52.5 °F 30.05 in SW 3.8 mph 13 mph 92% 0.00 in 9 W/m2
15:54 54.9 °F 52.5 °F 30.06 in SW 8 mph 15 mph 92% 0.00 in 7 W/m2
15:59 54.9 °F 52.5 °F 30.06 in SW 7.4 mph 14 mph 92% 0.00 in 0 W/m2
16:04 54.9 °F 52.5 °F 30.06 in SW 5.9 mph 16 mph 92% 0.00 in 0 W/m2
16:09 54.9 °F 52.5 °F 30.06 in SSW 3.6 mph 9 mph 92% 0.00 in 0 W/m2
16:14 54.9 °F 52.5 °F 30.06 in SSW 5.3 mph 12 mph 92% 0.00 in 0 W/m2
16:19 54.9 °F 52.5 °F 30.06 in SSW 7.4 mph 13 mph 92% 0.00 in 0 W/m2
16:24 54.9 °F 52.5 °F 30.06 in SSW 5.1 mph 14 mph 92% 0.00 in 0 W/m2
16:29 54.9 °F 52.5 °F 30.06 in WSW 5.4 mph 11 mph 92% 0.00 in 0 W/m2
16:34 55 °F 52.6 °F 30.07 in SW 8 mph 18 mph 92% 0.00 in 0 W/m2
16:39 55 °F 52.7 °F 30.07 in WSW 6.4 mph 11 mph 92% 0.00 in 0 W/m2
16:44 55 °F 52.7 °F 30.07 in WSW 9.2 mph 15 mph 92% 0.00 in 0 W/m2
16:49 55 °F 52.7 °F 30.07 in WSW 7.6 mph 15 mph 92% 0.00 in 0 W/m2
16:54 55.1 °F 52.8 °F 30.07 in WSW 4.8 mph 15 mph 92% 0.00 in 0 W/m2
16:59 55 °F 52.7 °F 30.07 in SW 6.5 mph 10 mph 92% 0.00 in 0 W/m2
17:04 55 °F 52.6 °F 30.07 in SSW 6.6 mph 13 mph 92% 0.00 in 0 W/m2
17:09 54.9 °F 52.7 °F 30.07 in SW 6.6 mph 14 mph 92.6% 0.00 in 0 W/m2
17:14 54.9 °F 52.9 °F 30.06 in SW 8.6 mph 15 mph 93% 0.00 in 0 W/m2
17:19 54.7 °F 52.7 °F 30.06 in SW 6.4 mph 14 mph 93% 0.00 in 0 W/m2
17:24 54.7 °F 52.7 °F 30.06 in SW 6.4 mph 11 mph 93% 0.00 in 0 W/m2
17:29 54.7 °F 52.7 °F 30.05 in SSW 7 mph 15 mph 93% 0.00 in 0 W/m2
17:34 54.7 °F 52.7 °F 30.05 in SW 9.8 mph 17 mph 93% 0.00 in 0 W/m2
17:39 54.8 °F 52.8 °F 30.05 in SSW 7.4 mph 15 mph 93% 0.00 in 0 W/m2
17:44 54.8 °F 52.8 °F 30.05 in SW 7.8 mph 12 mph 93% 0.00 in 0 W/m2
17:49 54.8 °F 52.8 °F 30.05 in SW 8.5 mph 13 mph 93% 0.00 in 0 W/m2
17:54 54.7 °F 52.7 °F 30.04 in SW 7.2 mph 14 mph 93% 0.00 in 0 W/m2
17:59 54.8 °F 52.8 °F 30.04 in SSW 10.5 mph 19 mph 93% 0.00 in 0 W/m2
18:04 54.9 °F 52.9 °F 30.04 in SW 9.6 mph 16 mph 93% 0.00 in 0 W/m2
18:09 54.9 °F 52.9 °F 30.05 in SW 8.7 mph 13 mph 93% 0.00 in 0 W/m2
18:14 54.9 °F 53 °F 30.05 in SW 7.2 mph 14 mph 93.2% 0.00 in 0 W/m2
18:19 54.9 °F 53.1 °F 30.04 in SW 6.5 mph 13 mph 93.6% 0.00 in 0 W/m2
18:24 54.9 °F 53.1 °F 30.05 in SW 4.8 mph 13 mph 93.5% 0.00 in 0 W/m2
18:29 54.9 °F 53 °F 30.05 in SW 6.4 mph 9 mph 93.4% 0.00 in 0 W/m2
18:34 54.9 °F 53.1 °F 30.05 in SW 6.9 mph 14 mph 93.8% 0.00 in 0 W/m2
18:39 54.9 °F 53.2 °F 30.05 in SW 7.8 mph 15 mph 94% 0.00 in 0 W/m2
18:44 54.9 °F 53.2 °F 30.04 in SW 4.4 mph 11 mph 94% 0.00 in 0 W/m2
18:49 54.9 °F 53 °F 30.04 in WSW 4.8 mph 9 mph 93.4% 0.00 in 0 W/m2
18:51 54.9 °F 53.2 °F 30.04 in SW 4 mph 9 mph 94% 0.00 in 0 W/m2
19:04 54.9 °F 53.2 °F 30.05 in WSW 5.5 mph 9 mph 94% 0.00 in 0 W/m2
19:09 54.9 °F 53.2 °F 30.05 in SW 5.6 mph 13 mph 94% 0.00 in 0 W/m2
19:14 54.9 °F 53.2 °F 30.05 in SW 5.4 mph 12 mph 94% 0.00 in 0 W/m2
19:19 54.9 °F 53.2 °F 30.05 in SSW 5 mph 11 mph 94% 0.00 in 0 W/m2
19:24 54.9 °F 53.2 °F 30.05 in SW 5.2 mph 10 mph 94% 0.00 in 0 W/m2
19:29 54.9 °F 53.2 °F 30.05 in WSW 6.4 mph 11 mph 94% 0.00 in 0 W/m2
19:34 54.9 °F 53.2 °F 30.05 in SW 5.7 mph 9 mph 94% 0.00 in 0 W/m2
19:39 54.9 °F 53.2 °F 30.05 in SW 5.6 mph 13 mph 94% 0.00 in 0 W/m2
19:44 54.9 °F 53.2 °F 30.05 in SW 5.4 mph 13 mph 94% 0.00 in 0 W/m2
19:49 54.9 °F 53.2 °F 30.05 in SW 5 mph 11 mph 94% 0.00 in 0 W/m2
19:54 54.9 °F 53.2 °F 30.05 in SW 6.5 mph 11 mph 94% 0.00 in 0 W/m2
19:58 54.9 °F 53.2 °F 30.04 in SW 5.5 mph 10 mph 94% 0.00 in 0 W/m2
20:04 54.9 °F 53.2 °F 30.04 in WSW 6.4 mph 10 mph 94% 0.00 in 0 W/m2
20:09 54.9 °F 53.2 °F 30.05 in West 4.4 mph 12 mph 94% 0.00 in 0 W/m2
20:14 54.9 °F 53.2 °F 30.05 in WSW 3.9 mph 9 mph 94% 0.00 in 0 W/m2
20:19 54.9 °F 53.2 °F 30.05 in WSW 4.4 mph 10 mph 94% 0.00 in 0 W/m2
20:23 54.9 °F 53.2 °F 30.05 in WSW 8.7 mph 12 mph 94% 0.00 in 0 W/m2
20:29 54.9 °F 53.3 °F 30.05 in WSW 5.2 mph 12 mph 94% 0.00 in 0 W/m2
20:34 54.9 °F 53.2 °F 30.05 in WSW 6.4 mph 14 mph 94% 0.00 in 0 W/m2
20:39 55 °F 53.4 °F 30.05 in SW 6.8 mph 13 mph 94% 0.00 in 0 W/m2
20:44 55 °F 53.4 °F 30.05 in SW 6.2 mph 14 mph 94% 0.00 in 0 W/m2
20:49 55 °F 53.4 °F 30.05 in WSW 7.1 mph 12 mph 94% 0.00 in 0 W/m2
20:54 55 °F 53.4 °F 30.05 in WSW 6.6 mph 10 mph 94% 0.00 in 0 W/m2
20:59 55 °F 53.4 °F 30.05 in West 4.2 mph 9 mph 94% 0.00 in 0 W/m2
21:04 55 °F 53.4 °F 30.05 in WSW 5.2 mph 11 mph 94% 0.00 in 0 W/m2
21:09 55 °F 53.4 °F 30.05 in WSW 7.4 mph 12 mph 94% 0.00 in 0 W/m2
21:14 55 °F 53.4 °F 30.05 in WSW 6.4 mph 12 mph 94% 0.00 in 0 W/m2
21:19 55 °F 53.4 °F 30.05 in WSW 5.2 mph 12 mph 94% 0.00 in 0 W/m2
21:24 55.2 °F 53.6 °F 30.05 in WSW 8 mph 13 mph 94% 0.00 in 0 W/m2
21:29 55.2 °F 53.6 °F 30.05 in SW 7.9 mph 14 mph 94% 0.00 in 0 W/m2
21:34 55.2 °F 53.6 °F 30.05 in West 7.2 mph 13 mph 94% 0.00 in 0 W/m2
21:39 55.2 °F 53.5 °F 30.06 in WSW 7.4 mph 13 mph 93.8% 0.00 in 0 W/m2
21:44 55.3 °F 53.3 °F 30.05 in WSW 7.9 mph 15 mph 93% 0.00 in 0 W/m2
21:49 55.2 °F 53.2 °F 30.05 in WSW 6.4 mph 13 mph 93% 0.00 in 0 W/m2
21:54 55.3 °F 53.3 °F 30.05 in WSW 6.2 mph 12 mph 93% 0.00 in 0 W/m2
21:59 55.2 °F 53.2 °F 30.06 in WSW 8.4 mph 13 mph 93% 0.00 in 0 W/m2
22:04 55.2 °F 53.2 °F 30.06 in West 5.9 mph 13 mph 93% 0.00 in 0 W/m2
22:09 55.2 °F 53.2 °F 30.06 in West 5.8 mph 12 mph 93% 0.00 in 0 W/m2
22:13 55.2 °F 53.2 °F 30.06 in West 6.8 mph 13 mph 93% 0.00 in 0 W/m2
22:19 55.2 °F 53.2 °F 30.06 in West 6.2 mph 13 mph 93% 0.00 in 0 W/m2
22:24 55.2 °F 53.2 °F 30.06 in WSW 4.6 mph 11 mph 93% 0.00 in 0 W/m2
22:29 55.2 °F 52.9 °F 30.05 in WSW 4.2 mph 11 mph 92% 0.00 in 0 W/m2
22:34 55.2 °F 52.9 °F 30.05 in SW 6 mph 12 mph 92% 0.00 in 0 W/m2
22:39 55.3 °F 53 °F 30.06 in WSW 4.7 mph 12 mph 92% 0.00 in 0 W/m2
22:44 55.2 °F 52.9 °F 30.06 in SW 4.1 mph 9 mph 92% 0.00 in 0 W/m2
22:49 55.2 °F 52.9 °F 30.06 in WSW 4.8 mph 8 mph 92% 0.00 in 0 W/m2
22:54 55.2 °F 52.8 °F 30.06 in WSW 5.5 mph 10 mph 92% 0.00 in 0 W/m2
22:59 55 °F 52.7 °F 30.06 in SW 6.6 mph 11 mph 92% 0.00 in 0 W/m2
23:04 55 °F 52.7 °F 30.06 in WSW 5.7 mph 12 mph 92% 0.00 in 0 W/m2
23:09 55 °F 52.7 °F 30.06 in SW 5.8 mph 10 mph 92% 0.00 in 0 W/m2
23:14 54.9 °F 52.5 °F 30.06 in WSW 7.8 mph 16 mph 92% 0.00 in 0 W/m2
23:19 54.7 °F 52.3 °F 30.06 in SW 5.7 mph 11 mph 92% 0.00 in 0 W/m2
23:24 54.7 °F 52.3 °F 30.06 in SSW 6.4 mph 13 mph 92% 0.00 in 0 W/m2
23:29 54.6 °F 52.5 °F 30.06 in SW 5.2 mph 10 mph 92.8% 0.00 in 0 W/m2
23:34 54.6 °F 52.6 °F 30.06 in WSW 6.2 mph 10 mph 93% 0.00 in 0 W/m2
23:39 54.5 °F 52.5 °F 30.06 in SW 6.8 mph 11 mph 93% 0.00 in 0 W/m2
23:44 54.5 °F 52.5 °F 30.06 in SW 8.2 mph 12 mph 93% 0.00 in 0 W/m2
23:49 54.5 °F 52.5 °F 30.06 in SW 5.4 mph 12 mph 93% 0.00 in 0 W/m2
23:54 54.5 °F 52.5 °F 30.07 in WSW 6.3 mph 10 mph 93% 0.00 in 0 W/m2
23:59 54.3 °F 52.3 °F 30.07 in WSW 3.7 mph 8 mph 93% 0.00 in 0 W/m2
Bath Spa Weather
Compliments of Weather Underground - 2 mb